createdAt,value
2022-12-06T00:02:45.868Z,7.01
2022-12-06T00:13:13.259Z,7.06
2022-12-06T00:23:42.457Z,7.02
2022-12-06T00:34:09.974Z,6.99
2022-12-06T00:44:37.258Z,6.97
2022-12-06T00:55:04.644Z,6.91
2022-12-06T01:05:33.331Z,6.94
2022-12-06T01:16:04.958Z,6.77
2022-12-06T01:26:33.959Z,6.45
2022-12-06T01:37:01.243Z,6.45
2022-12-06T01:47:30.698Z,6.42
2022-12-06T01:58:04.527Z,6.27
2022-12-06T02:08:32.980Z,6.26
2022-12-06T02:19:08.143Z,5.99
2022-12-06T02:29:59.815Z,6.00
2022-12-06T02:40:33.312Z,5.96
2022-12-06T02:51:04.012Z,5.82
2022-12-06T03:01:34.387Z,5.67
2022-12-06T03:12:08.125Z,5.73
2022-12-06T03:22:40.720Z,6.07
2022-12-06T03:33:08.663Z,6.20
2022-12-06T03:43:37.050Z,6.55
2022-12-06T03:54:06.951Z,6.83
2022-12-06T04:04:34.388Z,6.99
2022-12-06T04:15:01.616Z,7.11
2022-12-06T04:25:28.873Z,7.23
2022-12-06T04:36:16.159Z,7.21
2022-12-06T04:46:43.731Z,7.13
2022-12-06T04:57:13.371Z,7.03
2022-12-06T05:07:40.745Z,7.01
2022-12-06T05:18:08.343Z,7.01
2022-12-06T05:28:36.177Z,7.09
2022-12-06T05:39:03.462Z,6.66
2022-12-06T05:49:30.767Z,6.38
2022-12-06T05:59:58.412Z,6.43
2022-12-06T06:10:26.582Z,6.60
2022-12-06T06:20:55.292Z,6.72
2022-12-06T06:31:22.737Z,6.91
2022-12-06T06:41:50.332Z,7.07
2022-12-06T06:52:18.171Z,6.99
2022-12-06T07:02:45.520Z,6.83
2022-12-06T07:13:12.916Z,7.00
2022-12-06T07:23:40.324Z,7.12
2022-12-06T07:34:07.651Z,7.15
2022-12-06T07:44:55.539Z,7.23
2022-12-06T07:55:27.357Z,7.19
2022-12-06T08:05:57.622Z,7.22
2022-12-06T08:16:25.158Z,6.72
2022-12-06T08:26:53.247Z,6.64
2022-12-06T08:37:20.585Z,6.71
2022-12-06T08:47:47.872Z,6.55
2022-12-06T08:58:15.228Z,6.37
2022-12-06T09:08:42.761Z,6.01
2022-12-06T09:19:10.772Z,5.70
2022-12-06T09:29:40.748Z,5.62
2022-12-06T09:40:15.251Z,5.69
2022-12-06T09:50:52.540Z,5.85
2022-12-06T10:01:27.502Z,6.08
2022-12-06T10:12:08.250Z,6.17
2022-12-06T10:22:47.592Z,6.23
2022-12-06T10:33:28.254Z,5.98
2022-12-06T10:44:03.286Z,5.75
2022-12-06T10:54:36.652Z,5.56
2022-12-06T11:05:11.628Z,5.61
2022-12-06T11:15:43.884Z,5.72
2022-12-06T11:26:21.040Z,5.50
2022-12-06T11:36:59.640Z,5.39
2022-12-06T11:47:28.010Z,5.21
2022-12-06T11:58:00.540Z,5.06
2022-12-06T12:08:32.840Z,5.08
2022-12-06T12:19:04.895Z,5.34
2022-12-06T12:29:32.493Z,5.30
2022-12-06T12:40:02.003Z,5.26
2022-12-06T12:50:33.624Z,5.30
2022-12-06T13:01:08.002Z,5.29
2022-12-06T13:11:43.886Z,5.35
2022-12-06T13:22:20.211Z,5.40
2022-12-06T13:32:51.991Z,5.44
2022-12-06T13:43:57.096Z,5.43
2022-12-06T13:54:35.321Z,5.66
2022-12-06T14:05:03.040Z,5.96
2022-12-06T14:15:31.566Z,6.04
2022-12-06T14:26:21.188Z,5.84
2022-12-06T14:36:48.595Z,5.73
2022-12-06T14:47:18.596Z,5.68
2022-12-06T14:57:49.127Z,5.61
2022-12-06T15:08:35.058Z,5.44
2022-12-06T15:19:03.024Z,5.22
2022-12-06T15:29:30.435Z,5.11
2022-12-06T15:39:58.133Z,5.06
2022-12-06T15:50:26.294Z,5.04
2022-12-06T16:00:55.268Z,4.86
2022-12-06T16:11:25.544Z,4.61
2022-12-06T16:21:58.171Z,4.46
2022-12-06T16:32:25.641Z,4.50
2022-12-06T16:42:53.171Z,4.47
2022-12-06T16:53:20.615Z,4.50
2022-12-06T17:03:50.162Z,4.56
2022-12-06T17:14:18.857Z,4.61
2022-12-06T17:24:46.747Z,4.41
2022-12-06T17:35:14.376Z,4.44
2022-12-06T17:45:41.860Z,4.61
2022-12-06T17:56:30.567Z,4.52
2022-12-06T18:06:58.340Z,4.38
2022-12-06T18:17:25.816Z,4.15
2022-12-06T18:27:53.403Z,4.00
2022-12-06T18:38:21.032Z,3.87
2022-12-06T18:48:50.780Z,3.86
2022-12-06T18:59:20.107Z,3.84
2022-12-06T19:09:50.775Z,3.77
2022-12-06T19:20:18.799Z,3.70
2022-12-06T19:30:46.248Z,3.76
2022-12-06T19:41:16.843Z,3.73
2022-12-06T19:51:46.693Z,3.75
2022-12-06T20:02:14.952Z,3.78
2022-12-06T20:12:42.652Z,3.88
2022-12-06T20:23:10.755Z,3.80
2022-12-06T20:33:38.277Z,3.72
2022-12-06T20:44:05.951Z,3.77
2022-12-06T20:54:33.710Z,3.89
2022-12-06T21:05:01.436Z,3.84
2022-12-06T21:15:29.298Z,3.62
2022-12-06T21:25:57.097Z,3.47
2022-12-06T21:36:24.569Z,3.43
2022-12-06T21:46:54.857Z,3.46
2022-12-06T21:57:22.444Z,3.37
2022-12-06T22:07:49.870Z,3.37
2022-12-06T22:18:17.388Z,3.39
2022-12-06T22:28:45.171Z,3.41
2022-12-06T22:39:13.231Z,3.41
2022-12-06T22:49:40.635Z,3.46
2022-12-06T23:00:10.157Z,3.50
2022-12-06T23:10:37.769Z,3.63
2022-12-06T23:21:08.002Z,3.74
2022-12-06T23:31:37.540Z,3.63
2022-12-06T23:42:05.135Z,3.61
2022-12-06T23:52:32.490Z,3.78
